createdAt,value
2018-04-14T00:00:40.627Z,4.90
2018-04-14T00:03:08.973Z,4.80
2018-04-14T00:05:36.593Z,4.97
2018-04-14T00:08:04.217Z,5.60
2018-04-14T00:10:32.625Z,5.00
2018-04-14T00:13:00.237Z,5.23
2018-04-14T00:15:27.831Z,5.07
2018-04-14T00:17:55.429Z,5.33
2018-04-14T00:20:23.037Z,5.55
2018-04-14T00:22:50.611Z,5.37
2018-04-14T00:25:19.007Z,4.97
2018-04-14T00:27:46.592Z,5.30
2018-04-14T00:30:14.196Z,5.50
2018-04-14T00:32:41.782Z,6.00
2018-04-14T00:35:09.406Z,5.57
2018-04-14T00:37:36.988Z,5.20
2018-04-14T00:40:05.368Z,4.63
2018-04-14T00:42:32.977Z,4.87
2018-04-14T00:45:00.596Z,5.10
2018-04-14T00:47:28.188Z,5.07
2018-04-14T00:49:55.800Z,4.97
2018-04-14T00:52:24.222Z,5.40
2018-04-14T00:54:51.807Z,4.90
2018-04-14T00:57:19.482Z,5.77
2018-04-14T00:59:47.074Z,5.40
2018-04-14T01:02:15.464Z,5.17
2018-04-14T01:04:43.103Z,5.10
2018-04-14T01:07:10.678Z,5.10
2018-04-14T01:09:38.271Z,5.17
2018-04-14T01:12:05.887Z,5.10
2018-04-14T01:14:33.501Z,5.13
2018-04-14T01:17:01.127Z,6.00
2018-04-14T01:19:28.725Z,5.80
2018-04-14T01:21:56.327Z,5.20
2018-04-14T01:24:23.919Z,5.50
2018-04-14T01:26:51.553Z,5.90
2018-04-14T01:29:19.179Z,5.60
2018-04-14T01:31:46.782Z,5.57
2018-04-14T01:34:15.121Z,5.07
2018-04-14T01:36:42.692Z,5.30
2018-04-14T01:39:10.303Z,4.80
2018-04-14T01:41:37.879Z,5.17
2018-04-14T01:44:05.491Z,4.77
2018-04-14T01:46:33.078Z,5.60
2018-04-14T01:49:00.668Z,5.53
2018-04-14T01:51:28.266Z,4.83
2018-04-14T01:54:10.295Z,5.70
2018-04-14T01:56:37.906Z,4.97
2018-04-14T01:59:05.528Z,4.90
2018-04-14T02:01:33.128Z,5.57
2018-04-14T02:04:00.755Z,5.00
2018-04-14T02:06:28.357Z,5.37
2018-04-14T02:08:55.973Z,5.30
2018-04-14T02:11:23.567Z,5.33
2018-04-14T02:13:51.141Z,5.20
2018-04-14T02:16:18.775Z,5.50
2018-04-14T02:18:46.379Z,5.60
2018-04-14T02:21:14.758Z,5.07
2018-04-14T02:23:43.200Z,5.93
2018-04-14T02:26:10.814Z,5.37
2018-04-14T02:28:39.172Z,5.23
2018-04-14T02:31:06.776Z,5.57
2018-04-14T02:33:34.345Z,6.23
2018-04-14T02:36:09.274Z,5.93
2018-04-14T02:38:36.880Z,6.83
2018-04-14T02:41:04.497Z,5.77
2018-04-14T02:43:32.094Z,6.73
2018-04-14T02:45:59.693Z,6.57
2018-04-14T02:48:29.026Z,7.23
2018-04-14T02:50:56.618Z,6.80
2018-04-14T02:53:24.238Z,6.33
2018-04-14T02:55:51.927Z,5.87
2018-04-14T02:58:19.498Z,6.27
2018-04-14T03:00:47.128Z,6.20
2018-04-14T03:03:14.728Z,6.40
2018-04-14T03:05:42.318Z,5.87
2018-04-14T03:08:09.924Z,5.87
2018-04-14T03:10:37.517Z,6.15
2018-04-14T03:13:05.918Z,5.70
2018-04-14T03:15:33.516Z,5.87
2018-04-14T03:18:01.110Z,5.67
2018-04-14T03:20:28.704Z,6.03
2018-04-14T03:22:56.307Z,6.03
2018-04-14T03:25:23.919Z,5.40
2018-04-14T03:27:51.516Z,6.00
2018-04-14T03:30:19.118Z,5.33
2018-04-14T03:32:47.472Z,6.17
2018-04-14T03:35:15.075Z,6.00
2018-04-14T03:37:43.415Z,6.03
2018-04-14T03:40:10.994Z,5.47
2018-04-14T03:42:39.312Z,6.00
2018-04-14T03:45:06.936Z,5.93
2018-04-14T03:47:35.278Z,5.80
2018-04-14T03:50:02.879Z,6.97
2018-04-14T03:52:31.268Z,6.17
2018-04-14T03:54:59.660Z,6.10
2018-04-14T03:57:27.260Z,8.00
2018-04-14T03:59:54.857Z,6.47
2018-04-14T04:02:22.462Z,6.20
2018-04-14T04:04:50.067Z,6.60
2018-04-14T04:07:17.682Z,7.57
2018-04-14T04:09:45.287Z,7.63
2018-04-14T04:12:12.896Z,6.60
2018-04-14T04:14:40.460Z,7.40
2018-04-14T04:17:08.110Z,7.37
2018-04-14T04:19:47.693Z,7.65
2018-04-14T04:22:27.356Z,8.10
2018-04-14T04:31:23.434Z,8.27
2018-04-14T04:33:50.960Z,7.53
2018-04-14T04:36:18.456Z,7.83
2018-04-14T04:38:46.748Z,8.53
2018-04-14T04:41:14.247Z,8.57
2018-04-14T04:43:41.811Z,8.57
2018-04-14T04:46:09.401Z,8.80
2018-04-14T04:48:36.982Z,9.20
2018-04-14T04:51:04.598Z,9.40
2018-04-14T04:53:32.153Z,9.23
2018-04-14T04:55:59.777Z,9.90
2018-04-14T04:58:27.396Z,9.40
2018-04-14T05:00:55.004Z,9.83
2018-04-14T05:03:22.593Z,8.98
2018-04-14T05:05:50.209Z,9.37
2018-04-14T05:08:17.821Z,10.33
2018-04-14T05:10:45.437Z,10.20
2018-04-14T05:13:13.092Z,9.60
2018-04-14T05:15:40.712Z,11.53
2018-04-14T05:18:08.313Z,10.40
2018-04-14T05:20:37.006Z,10.20
2018-04-14T05:23:04.583Z,10.87
2018-04-14T05:25:32.167Z,10.87
2018-04-14T05:27:59.775Z,10.07
2018-04-14T05:30:27.400Z,9.50
2018-04-14T05:32:55.029Z,10.90
2018-04-14T05:35:22.628Z,10.17
2018-04-14T05:37:53.659Z,10.67
2018-04-14T05:40:21.243Z,9.87
2018-04-14T05:42:49.679Z,8.80
2018-04-14T05:45:17.246Z,10.07
2018-04-14T05:47:44.883Z,8.97
2018-04-14T05:50:12.495Z,9.10
2018-04-14T05:52:40.109Z,8.33
2018-04-14T05:55:07.723Z,8.37
2018-04-14T05:57:35.315Z,9.53
2018-04-14T06:00:02.888Z,7.70
2018-04-14T06:02:30.743Z,7.90
2018-04-14T06:04:58.335Z,8.23
2018-04-14T06:07:30.169Z,8.70
2018-04-14T06:09:57.784Z,10.90
2018-04-14T06:12:25.830Z,9.10
2018-04-14T06:14:53.564Z,8.63
2018-04-14T06:17:21.167Z,10.90
2018-04-14T06:19:55.997Z,11.87
2018-04-14T06:22:23.610Z,11.67
2018-04-14T06:24:51.208Z,10.73
2018-04-14T06:27:18.817Z,11.50
2018-04-14T06:29:46.425Z,12.60
2018-04-14T06:32:14.041Z,12.90
2018-04-14T06:34:41.637Z,12.60
2018-04-14T06:37:09.212Z,12.67
2018-04-14T06:39:36.807Z,14.37
2018-04-14T06:42:05.133Z,13.23
2018-04-14T06:44:34.422Z,15.20
2018-04-14T06:47:02.029Z,12.07
2018-04-14T06:49:30.471Z,13.67
2018-04-14T06:51:58.261Z,12.50
2018-04-14T06:54:29.806Z,12.97
2018-04-14T06:56:57.525Z,14.00
2018-04-14T06:59:25.203Z,14.50
2018-04-14T07:01:53.555Z,14.60
2018-04-14T07:04:21.911Z,13.77
2018-04-14T07:06:49.535Z,13.93
2018-04-14T07:09:17.117Z,15.60
2018-04-14T07:11:44.699Z,16.33
2018-04-14T07:14:12.315Z,15.47
2018-04-14T07:16:39.975Z,17.07
2018-04-14T07:19:07.583Z,15.83
2018-04-14T07:21:35.216Z,15.17
2018-04-14T07:24:03.569Z,16.23
2018-04-14T07:26:31.181Z,16.07
2018-04-14T07:28:58.821Z,14.53
2018-04-14T07:31:26.441Z,15.83
2018-04-14T07:33:54.083Z,14.37
2018-04-14T07:36:21.729Z,15.00
2018-04-14T07:38:50.123Z,16.30
2018-04-14T07:41:18.527Z,15.63
2018-04-14T07:43:46.155Z,14.07
2018-04-14T07:46:14.599Z,13.63
2018-04-14T07:48:42.299Z,15.00
2018-04-14T07:51:10.644Z,13.13
2018-04-14T07:53:39.223Z,14.17
2018-04-14T07:56:06.911Z,13.70
2018-04-14T07:58:35.299Z,13.33
2018-04-14T08:01:03.681Z,14.90
2018-04-14T08:03:32.039Z,14.33
2018-04-14T08:05:59.621Z,12.63
2018-04-14T08:11:26.980Z,12.57
2018-04-14T08:13:58.061Z,11.97
2018-04-14T08:16:25.866Z,11.83
2018-04-14T08:18:53.751Z,11.17
2018-04-14T08:21:21.356Z,11.43
2018-04-14T08:23:48.921Z,10.83
2018-04-14T08:26:16.950Z,11.63
2018-04-14T08:28:45.362Z,11.13
2018-04-14T08:31:13.888Z,13.73
2018-04-14T08:33:41.513Z,11.43
2018-04-14T08:36:09.925Z,11.77
2018-04-14T08:38:37.522Z,11.03
2018-04-14T08:41:06.279Z,9.07
2018-04-14T08:43:34.882Z,7.63
2018-04-14T08:46:02.852Z,23.70
2018-04-14T08:48:30.478Z,11.80
2018-04-14T08:50:58.205Z,10.07
2018-04-14T08:53:25.818Z,10.87
2018-04-14T08:55:53.420Z,10.27
2018-04-14T08:58:21.034Z,9.10
2018-04-14T09:00:48.623Z,8.80
2018-04-14T09:03:16.234Z,8.30
2018-04-14T09:05:44.599Z,9.13
2018-04-14T09:08:12.954Z,8.43
2018-04-14T09:10:40.564Z,8.97
2018-04-14T09:13:18.226Z,7.60
2018-04-14T09:15:45.874Z,7.77
2018-04-14T09:18:13.520Z,8.00
2018-04-14T09:20:41.122Z,7.33
2018-04-14T09:23:09.514Z,8.80
2018-04-14T09:25:37.877Z,8.20
2018-04-14T09:28:05.596Z,8.07
2018-04-14T09:30:33.206Z,7.83
2018-04-14T09:33:01.610Z,8.15
2018-04-14T09:35:29.210Z,7.07
2018-04-14T09:37:56.792Z,7.43
2018-04-14T09:40:24.438Z,7.20
2018-04-14T09:42:52.265Z,6.50
2018-04-14T09:45:19.898Z,8.00
2018-04-14T09:47:48.258Z,6.20
2018-04-14T09:50:16.098Z,5.50
2018-04-14T09:52:43.752Z,5.20
2018-04-14T09:55:12.406Z,5.63
2018-04-14T09:57:40.008Z,4.80
2018-04-14T10:00:08.706Z,4.80
2018-04-14T10:02:42.558Z,4.40
2018-04-14T10:05:10.148Z,4.07
2018-04-14T10:07:37.800Z,3.90
2018-04-14T10:10:05.394Z,3.53
2018-04-14T10:12:33.057Z,3.97
2018-04-14T10:15:00.628Z,3.97
2018-04-14T10:17:28.240Z,3.90
2018-04-14T10:19:55.860Z,4.10
2018-04-14T10:22:24.272Z,4.00
2018-04-14T10:24:51.865Z,2.80
2018-04-14T10:27:19.511Z,2.90
2018-04-14T10:29:47.093Z,3.00
2018-04-14T10:32:16.238Z,3.10
2018-04-14T10:34:43.940Z,2.50
2018-04-14T10:37:11.592Z,2.47
2018-04-14T10:39:39.165Z,2.40
2018-04-14T10:42:06.746Z,2.50
2018-04-14T10:44:34.440Z,2.50
2018-04-14T10:47:02.776Z,2.17
2018-04-14T10:49:30.345Z,2.70
2018-04-14T10:51:57.959Z,2.30
2018-04-14T10:54:25.580Z,1.90
2018-04-14T10:56:53.176Z,2.10
2018-04-14T10:59:20.811Z,2.17
2018-04-14T11:01:48.394Z,2.10
2018-04-14T11:04:16.797Z,2.00
2018-04-14T11:06:44.403Z,1.80
2018-04-14T11:09:11.971Z,1.70
2018-04-14T11:11:40.369Z,1.60
2018-04-14T11:14:07.958Z,1.70
2018-04-14T11:16:35.573Z,1.60
2018-04-14T11:19:03.936Z,2.73
2018-04-14T11:21:32.244Z,1.90
2018-04-14T11:23:59.861Z,2.10
2018-04-14T11:26:27.469Z,10.60
2018-04-14T11:28:55.069Z,1.70
2018-04-14T11:31:22.736Z,1.30
2018-04-14T11:33:50.367Z,1.40
2018-04-14T11:36:20.313Z,1.40
2018-04-14T11:38:47.997Z,1.10
2018-04-14T11:41:16.353Z,1.40
2018-04-14T11:43:43.985Z,1.37
2018-04-14T11:46:11.591Z,1.10
2018-04-14T11:48:39.919Z,0.90
2018-04-14T11:51:07.581Z,1.33
2018-04-14T11:53:35.190Z,1.20
2018-04-14T11:56:03.575Z,1.27
2018-04-14T11:58:31.951Z,1.20
2018-04-14T12:01:00.333Z,1.10
2018-04-14T12:03:28.713Z,1.23
2018-04-14T12:05:57.038Z,1.30
2018-04-14T12:08:24.632Z,1.00
2018-04-14T12:10:52.198Z,1.27
2018-04-14T12:13:20.568Z,1.10
2018-04-14T12:15:48.289Z,1.30
2018-04-14T12:18:15.928Z,1.00
2018-04-14T12:20:43.534Z,0.87
2018-04-14T12:23:11.109Z,1.43
2018-04-14T12:25:39.461Z,1.07
2018-04-14T12:28:07.023Z,1.10
2018-04-14T12:30:34.753Z,0.90
2018-04-14T12:33:02.373Z,1.25
2018-04-14T12:35:29.999Z,1.10
2018-04-14T12:37:59.501Z,1.27
2018-04-14T12:40:27.243Z,0.90
2018-04-14T12:42:54.925Z,0.87
2018-04-14T12:45:22.583Z,1.10
2018-04-14T12:47:50.166Z,0.90
2018-04-14T12:50:17.963Z,0.80
2018-04-14T12:52:45.570Z,0.70
2018-04-14T12:55:13.211Z,0.82
2018-04-14T12:57:40.837Z,0.98
2018-04-14T13:00:08.439Z,0.70
2018-04-14T13:02:36.121Z,0.88
2018-04-14T13:05:03.785Z,0.90
2018-04-14T13:07:36.621Z,0.80
2018-04-14T13:10:04.381Z,0.80
2018-04-14T13:12:33.871Z,0.90
2018-04-14T13:15:02.424Z,0.97
2018-04-14T13:17:30.931Z,1.03
2018-04-14T13:19:59.420Z,1.13
2018-04-14T13:22:27.497Z,1.00
2018-04-14T13:24:55.193Z,1.30
2018-04-14T13:27:22.764Z,0.90
2018-04-14T13:29:50.401Z,1.60
2018-04-14T13:32:18.443Z,1.07
2018-04-14T13:34:46.191Z,1.00
2018-04-14T13:37:14.537Z,0.87
2018-04-14T13:39:42.170Z,1.10
2018-04-14T13:42:09.803Z,1.33
2018-04-14T13:44:37.489Z,1.17
2018-04-14T13:47:05.113Z,1.20
2018-04-14T13:49:33.489Z,1.13
2018-04-14T13:52:01.919Z,1.20
2018-04-14T13:54:29.507Z,1.00
2018-04-14T13:56:57.175Z,1.20
2018-04-14T13:59:24.791Z,1.10
2018-04-14T14:01:53.719Z,1.10
2018-04-14T14:04:22.147Z,0.80
2018-04-14T14:06:49.761Z,1.10
2018-04-14T14:09:17.377Z,1.13
2018-04-14T14:11:45.269Z,0.80
2018-04-14T14:14:12.952Z,1.00
2018-04-14T14:16:40.526Z,1.43
2018-04-14T14:19:08.329Z,1.77
2018-04-14T14:21:36.261Z,1.13
2018-04-14T14:24:04.508Z,0.90
2018-04-14T14:26:32.276Z,1.30
2018-04-14T14:29:00.036Z,1.03
2018-04-14T14:31:27.710Z,1.20
2018-04-14T14:33:55.337Z,0.80
2018-04-14T14:36:23.701Z,1.10
2018-04-14T14:38:51.324Z,1.10
2018-04-14T14:41:18.934Z,0.97
2018-04-14T14:43:47.449Z,0.90
2018-04-14T14:46:15.016Z,1.10
2018-04-14T14:48:42.662Z,1.20
2018-04-14T14:51:10.171Z,1.57
2018-04-14T14:53:37.790Z,1.50
2018-04-14T14:56:05.584Z,1.20
2018-04-14T14:58:33.200Z,1.30
2018-04-14T15:01:01.555Z,1.20
2018-04-14T15:03:29.121Z,1.43
2018-04-14T15:05:56.706Z,1.10
2018-04-14T15:08:24.310Z,1.50
2018-04-14T15:10:51.937Z,1.10
2018-04-14T15:13:19.646Z,1.10
2018-04-14T15:15:47.280Z,1.30
2018-04-14T15:18:14.873Z,1.13
2018-04-14T15:20:42.444Z,1.00
2018-04-14T15:23:15.846Z,1.33
2018-04-14T15:25:45.124Z,1.30
2018-04-14T15:28:12.775Z,1.40
2018-04-14T15:30:40.359Z,1.37
2018-04-14T15:33:07.959Z,1.40
2018-04-14T15:35:35.519Z,1.50
2018-04-14T15:38:03.130Z,1.70
2018-04-14T15:40:30.729Z,1.40
2018-04-14T15:42:58.385Z,1.70
2018-04-14T15:45:25.987Z,1.70
2018-04-14T15:47:54.369Z,1.70
2018-04-14T15:50:22.198Z,1.63
2018-04-14T15:52:49.818Z,1.47
2018-04-14T15:55:17.450Z,1.50
2018-04-14T15:57:45.780Z,1.67
2018-04-14T16:00:13.348Z,1.60
2018-04-14T16:02:40.979Z,1.40
2018-04-14T16:05:08.792Z,1.80
2018-04-14T16:07:36.431Z,1.67
2018-04-14T16:10:04.074Z,1.87
2018-04-14T16:12:32.412Z,1.53
2018-04-14T16:15:00.066Z,1.30
2018-04-14T16:17:27.702Z,1.50
2018-04-14T16:19:55.349Z,2.00
2018-04-14T16:22:23.030Z,1.90
2018-04-14T16:24:50.601Z,1.60
2018-04-14T16:27:18.214Z,1.90
2018-04-14T16:29:45.812Z,1.67
2018-04-14T16:32:13.433Z,1.53
2018-04-14T16:34:41.812Z,1.57
2018-04-14T16:37:10.233Z,1.50
2018-04-14T16:39:37.807Z,1.60
2018-04-14T16:42:05.422Z,1.70
2018-04-14T16:44:33.049Z,1.77
2018-04-14T16:47:00.679Z,1.60
2018-04-14T16:49:28.252Z,1.30
2018-04-14T16:51:55.879Z,1.90
2018-04-14T16:54:23.485Z,2.20
2018-04-14T16:56:51.042Z,1.50
2018-04-14T16:59:19.732Z,1.50
2018-04-14T17:02:11.938Z,1.80
2018-04-14T17:04:41.397Z,1.90
2018-04-14T17:07:09.768Z,1.60
2018-04-14T17:09:37.357Z,1.73
2018-04-14T17:12:04.932Z,2.30
2018-04-14T17:14:32.553Z,2.00
2018-04-14T17:17:00.940Z,2.70
2018-04-14T17:19:29.275Z,2.00
2018-04-14T17:21:56.845Z,2.30
2018-04-14T17:24:25.942Z,1.80
2018-04-14T17:26:53.588Z,2.00
2018-04-14T17:29:21.150Z,2.50
2018-04-14T17:31:48.752Z,2.80
2018-04-14T17:34:17.133Z,2.80
2018-04-14T17:36:45.508Z,2.17
2018-04-14T17:39:13.824Z,2.27
2018-04-14T17:41:41.397Z,2.70
2018-04-14T17:44:09.492Z,3.60
2018-04-14T17:46:37.107Z,2.70
2018-04-14T17:49:04.679Z,3.23
2018-04-14T17:51:33.675Z,2.80
2018-04-14T17:54:01.681Z,3.10
2018-04-14T17:59:10.883Z,1.70
2018-04-14T18:01:38.763Z,2.30
2018-04-14T18:04:08.307Z,4.23
2018-04-14T18:06:36.168Z,4.07
2018-04-14T18:09:03.908Z,4.37
2018-04-14T18:11:31.529Z,5.13
2018-04-14T18:14:00.757Z,3.47
2018-04-14T18:16:30.155Z,3.10
2018-04-14T18:18:58.816Z,2.90
2018-04-14T18:21:27.717Z,2.57
2018-04-14T18:23:55.511Z,2.73
2018-04-14T18:26:23.607Z,2.90
2018-04-14T18:28:51.249Z,3.03
2018-04-14T18:31:18.888Z,4.00
2018-04-14T18:33:47.418Z,5.13
2018-04-14T18:36:18.656Z,5.53
2018-04-14T18:38:46.910Z,6.63
2018-04-14T18:41:14.515Z,6.40
2018-04-14T18:43:42.128Z,6.30
2018-04-14T18:46:09.723Z,6.40
2018-04-14T18:48:37.296Z,4.90
2018-04-14T18:51:04.915Z,7.17
2018-04-14T18:53:32.515Z,3.87
2018-04-14T18:56:00.106Z,4.53
2018-04-14T18:58:27.732Z,3.63
2018-04-14T19:00:55.387Z,8.63
2018-04-14T19:03:22.990Z,12.37
2018-04-14T19:05:51.393Z,11.67
2018-04-14T19:08:18.978Z,13.10
2018-04-14T19:10:46.585Z,8.73
2018-04-14T19:13:14.984Z,8.97
2018-04-14T19:15:43.383Z,7.37
2018-04-14T19:18:11.008Z,8.27
2018-04-14T19:20:38.623Z,9.07
2018-04-14T19:23:06.235Z,5.80
2018-04-14T19:25:33.876Z,5.03
2018-04-14T19:28:01.483Z,5.03
2018-04-14T19:30:29.112Z,5.50
2018-04-14T19:32:56.754Z,5.23
2018-04-14T19:35:24.365Z,5.30
2018-04-14T19:37:52.013Z,3.80
2018-04-14T19:40:19.609Z,3.53
2018-04-14T19:42:47.199Z,4.03
2018-04-14T19:45:14.803Z,3.33
2018-04-14T19:47:42.522Z,3.77
2018-04-14T19:50:10.120Z,3.83
2018-04-14T19:52:37.740Z,3.67
2018-04-14T19:55:05.353Z,4.50
2018-04-14T19:57:32.952Z,5.03
2018-04-14T20:00:00.604Z,5.80
2018-04-14T20:02:28.168Z,8.17
2018-04-14T20:04:55.766Z,7.50
2018-04-14T20:07:24.345Z,6.43
2018-04-14T20:09:51.952Z,5.70
2018-04-14T20:12:19.591Z,6.20
2018-04-14T20:14:47.976Z,5.93
2018-04-14T20:17:15.564Z,5.43
2018-04-14T20:19:43.199Z,5.03
2018-04-14T20:22:10.842Z,5.60
2018-04-14T20:24:39.177Z,5.43
2018-04-14T20:27:06.811Z,5.47
2018-04-14T20:29:34.386Z,5.70
2018-04-14T20:32:02.016Z,6.40
2018-04-14T20:34:29.621Z,5.50
2018-04-14T20:36:57.378Z,5.70
2018-04-14T20:39:25.000Z,5.00
2018-04-14T20:41:52.621Z,5.00
2018-04-14T20:44:20.246Z,5.30
2018-04-14T20:46:47.979Z,5.17
2018-04-14T20:49:15.572Z,5.27
2018-04-14T20:51:43.220Z,5.00
2018-04-14T20:54:10.824Z,4.93
2018-04-14T20:56:38.430Z,4.80
2018-04-14T20:59:06.818Z,5.27
2018-04-14T21:01:34.432Z,5.67
2018-04-14T21:04:02.032Z,4.80
2018-04-14T21:06:29.638Z,5.13
2018-04-14T21:08:57.250Z,4.40
2018-04-14T21:11:25.602Z,4.93
2018-04-14T21:13:53.249Z,4.77
2018-04-14T21:16:20.862Z,4.50
2018-04-14T21:18:48.424Z,4.87
2018-04-14T21:21:16.005Z,4.77
2018-04-14T21:23:43.622Z,4.50
2018-04-14T21:26:12.086Z,4.10
2018-04-14T21:28:39.714Z,5.00
2018-04-14T21:31:07.281Z,4.00
2018-04-14T21:33:34.898Z,4.60
2018-04-14T21:36:02.500Z,5.43
2018-04-14T21:38:30.119Z,6.27
2018-04-14T21:40:57.998Z,5.73
2018-04-14T21:43:25.682Z,6.23
2018-04-14T21:45:53.284Z,6.60
2018-04-14T21:48:20.884Z,6.63
2018-04-14T21:50:48.560Z,7.63
2018-04-14T21:53:16.212Z,7.60
2018-04-14T21:55:43.832Z,7.60
2018-04-14T21:58:11.464Z,7.23
2018-04-14T22:00:39.098Z,8.47
2018-04-14T22:03:06.739Z,7.83
2018-04-14T22:05:34.379Z,8.17
2018-04-14T22:08:02.764Z,8.10
2018-04-14T22:10:31.128Z,7.17
2018-04-14T22:12:58.856Z,7.20
2018-04-14T22:15:26.449Z,7.97
2018-04-14T22:17:54.044Z,7.30
2018-04-14T22:20:21.673Z,6.33
2018-04-14T22:22:50.063Z,6.47
2018-04-14T22:25:18.521Z,6.83
2018-04-14T22:27:46.069Z,6.70
2018-04-14T22:30:13.759Z,6.50
2018-04-14T22:32:41.353Z,6.90
2018-04-14T22:35:09.001Z,6.53
2018-04-14T22:37:37.401Z,7.37
2018-04-14T22:40:05.029Z,6.90
2018-04-14T22:42:33.424Z,8.53
2018-04-14T22:45:01.065Z,8.13
2018-04-14T22:47:30.239Z,7.57
2018-04-14T22:49:57.812Z,7.57
2018-04-14T22:52:25.437Z,6.90
2018-04-14T22:54:53.057Z,6.80
2018-04-14T22:57:20.689Z,5.77
2018-04-14T22:59:48.249Z,6.20
2018-04-14T23:02:15.831Z,6.47
2018-04-14T23:04:43.425Z,6.70
2018-04-14T23:07:11.041Z,6.20
2018-04-14T23:09:38.647Z,5.63
2018-04-14T23:12:06.279Z,5.50
2018-04-14T23:14:58.012Z,5.37
2018-04-14T23:17:25.615Z,4.63
2018-04-14T23:19:53.209Z,4.30
2018-04-14T23:22:20.831Z,4.10
2018-04-14T23:24:48.440Z,4.53
2018-04-14T23:27:16.042Z,4.87
2018-04-14T23:29:43.627Z,5.13
2018-04-14T23:32:11.198Z,6.20
2018-04-14T23:34:38.825Z,4.67
2018-04-14T23:37:06.422Z,4.93
2018-04-14T23:39:34.029Z,5.23
2018-04-14T23:42:01.613Z,6.10
2018-04-14T23:44:29.262Z,5.40
2018-04-14T23:46:56.824Z,4.90
2018-04-14T23:49:24.506Z,5.30
2018-04-14T23:51:52.106Z,5.60
2018-04-14T23:54:20.465Z,5.20
2018-04-14T23:56:48.083Z,5.30
2018-04-14T23:59:30.070Z,4.10
